Crowder, Mississippi
Current Conditions -  °F | °C
As of 9:15 AM on Wednesday 26 Nov 2014 (Local Time) from KCKM Reporting Station
Clear Clear  
Wind Chill: 34°   Ceiling: Unl
Heat Index: 41°   Visibility: 10mi
Dew Point: 34°   Wind: 13mph
Humidity: 76%   Direction: 150°SSE
Pressure: 30.15"   Gusts: NA
Location:  34.17°N, 90.14°W
Report Text: KCKM 261515Z AUTO 15011KT 10SM CLR 05/01 A3015 RMK AO1
Loading
Personal Weather Stations






























Interactive Weather Map New forecast layout! Learn more

10-Day Weather Forecast

Advertisements
Track Severe Weather on mobile